Time;durP1;ratioP1;P1;durP2;ratioP2;P2;SDS_P1;SDS_P2;PMS_P1;PMS_P2;Temp;Humidity;BMP_temperature;BMP_pressure;BME280_temperature;BME280_humidity;BME280_pressure;Samples;Min_cycle;Max_cycle;Signal;HPM_P1;HPM_P2
2022/06/16 00:01:57;;;;;;;5.93;5.40;;;20.70;73.10;;;;;;6044943;23;20510;-82
2022/06/16 00:04:25;;;;;;;5.87;5.37;;;20.60;73.30;;;;;;6057016;23;20958;-82
2022/06/16 00:06:53;;;;;;;6.13;5.60;;;20.50;73.60;;;;;;6052394;23;20446;-81
2022/06/16 00:09:20;;;;;;;5.47;4.97;;;20.50;73.80;;;;;;6050654;23;20501;-82
2022/06/16 00:11:48;;;;;;;5.37;4.97;;;20.50;74.40;;;;;;6052299;23;20443;-82
2022/06/16 00:14:15;;;;;;;5.97;5.13;;;20.40;74.90;;;;;;6050064;23;20463;-81
2022/06/16 00:16:42;;;;;;;6.90;5.60;;;20.40;75.40;;;;;;6060084;23;20482;-81
2022/06/16 00:19:11;;;;;;;5.27;4.87;;;20.40;76.00;;;;;;6054515;23;20489;-82
2022/06/16 00:21:38;;;;;;;5.80;5.30;;;20.40;76.30;;;;;;6049016;23;20880;-82
2022/06/16 00:24:05;;;;;;;6.47;5.90;;;20.30;76.40;;;;;;6056063;23;20444;-82
2022/06/16 00:26:33;;;;;;;6.17;5.67;;;20.30;76.70;;;;;;6048415;23;20520;-82
2022/06/16 00:29:00;;;;;;;6.10;5.50;;;20.30;76.90;;;;;;6045607;23;20540;-82
2022/06/16 00:31:27;;;;;;;5.60;5.10;;;20.30;77.00;;;;;;6050253;23;20474;-82
2022/06/16 00:33:54;;;;;;;5.43;5.03;;;20.20;77.10;;;;;;6059281;23;20439;-82
2022/06/16 00:36:24;;;;;;;5.90;5.40;;;20.20;77.20;;;;;;6042893;23;20459;-82
2022/06/16 00:38:51;;;;;;;5.20;4.80;;;20.20;77.60;;;;;;6055285;23;20474;-82
2022/06/16 00:41:18;;;;;;;6.40;5.90;;;20.10;77.90;;;;;;6057079;23;20899;-81
2022/06/16 00:43:45;;;;;;;5.87;5.33;;;20.10;78.10;;;;;;6048610;23;20486;-82
2022/06/16 00:46:15;;;;;;;5.53;5.07;;;20.00;78.30;;;;;;6051863;23;20526;-82
2022/06/16 00:48:46;;;;;;;5.40;5.00;;;20.00;78.90;;;;;;6051967;23;20478;-82
2022/06/16 00:51:19;;;;;;;6.53;5.90;;;20.00;79.40;;;;;;6043597;23;20502;-82
2022/06/16 00:53:48;;;;;;;5.67;5.17;;;20.00;79.80;;;;;;6052386;23;20453;-82
2022/06/16 00:56:20;;;;;;;5.90;5.30;;;19.90;79.70;;;;;;6056190;23;20443;-82
2022/06/16 00:58:51;;;;;;;6.30;5.20;;;19.90;79.80;;;;;;6042636;23;20474;-82
2022/06/16 01:01:21;;;;;;;4.50;4.13;;;19.90;80.30;;;;;;6053601;23;20450;-82
2022/06/16 01:06:33;;;;;;;5.60;5.10;;;19.80;80.00;;;;;;6046387;23;20837;-82
2022/06/16 01:09:05;;;;;;;5.47;5.03;;;19.70;81.20;;;;;;6041907;23;20477;-83
2022/06/16 01:14:50;;;;;;;5.37;5.03;;;19.60;82.10;;;;;;6053548;23;20455;-82
2022/06/16 01:17:24;;;;;;;5.70;5.20;;;19.60;82.90;;;;;;6060244;23;21037;-82
2022/06/16 01:20:05;;;;;;;5.07;4.60;;;19.40;83.50;;;;;;6065168;23;20808;-82
2022/06/16 01:22:52;;;;;;;6.43;5.93;;;19.40;84.60;;;;;;6064247;23;20442;-82
2022/06/16 01:25:30;;;;;;;6.13;5.43;;;19.30;85.90;;;;;;6057000;23;20443;-82
2022/06/16 01:28:22;;;;;;;6.10;5.50;;;19.20;87.20;;;;;;6038303;23;20476;-82
2022/06/16 01:31:03;;;;;;;7.00;6.30;;;19.10;88.30;;;;;;6048916;23;20451;-82
2022/06/16 01:33:39;;;;;;;6.63;6.03;;;19.00;90.50;;;;;;6048072;23;20503;-82
2022/06/16 01:36:13;;;;;;;7.10;6.50;;;18.90;92.50;;;;;;6045462;23;20452;-83
2022/06/16 01:38:47;;;;;;;6.87;6.27;;;18.70;94.90;;;;;;6042016;23;20493;-82
2022/06/16 01:41:22;;;;;;;7.10;6.60;;;18.60;97.10;;;;;;6057093;23;20452;-82
2022/06/16 01:43:56;;;;;;;7.07;6.37;;;18.50;99.00;;;;;;6044599;23;20458;-82
2022/06/16 01:46:26;;;;;;;6.90;6.30;;;18.40;99.90;;;;;;6049957;23;20795;-83
2022/06/16 01:48:59;;;;;;;5.83;5.30;;;18.40;99.90;;;;;;6050836;23;20476;-82
2022/06/16 01:51:32;;;;;;;6.20;5.70;;;18.30;99.90;;;;;;6057888;23;20443;-82
2022/06/16 01:54:03;;;;;;;8.37;6.30;;;18.20;99.90;;;;;;6057561;23;20505;-82
2022/06/16 01:56:36;;;;;;;6.87;6.27;;;18.10;99.90;;;;;;6053130;23;20830;-82
2022/06/16 01:59:08;;;;;;;6.70;6.10;;;18.00;99.90;;;;;;6046230;23;20475;-82
2022/06/16 02:01:41;;;;;;;7.67;6.90;;;18.00;99.90;;;;;;6051723;23;20443;-83
2022/06/16 02:04:13;;;;;;;7.40;6.70;;;17.90;99.90;;;;;;6058122;23;20451;-82
2022/06/16 02:06:44;;;;;;;7.90;7.13;;;17.90;99.90;;;;;;6052267;23;20964;-82
2022/06/16 02:09:14;;;;;;;7.90;7.27;;;17.90;99.90;;;;;;6051392;23;20562;-82
2022/06/16 02:11:44;;;;;;;7.50;6.83;;;17.90;99.90;;;;;;6049467;23;20440;-82
2022/06/16 02:14:16;;;;;;;6.60;6.00;;;17.90;99.90;;;;;;6042736;23;20436;-82
2022/06/16 02:16:46;;;;;;;6.80;6.30;;;17.90;99.90;;;;;;6043449;23;20439;-82
2022/06/16 02:19:17;;;;;;;7.47;6.83;;;17.80;99.90;;;;;;6051081;23;20515;-83
2022/06/16 02:21:46;;;;;;;7.67;7.00;;;17.80;99.90;;;;;;6056771;23;20457;-82
2022/06/16 02:24:17;;;;;;;7.90;7.30;;;17.70;99.90;;;;;;6048044;23;20468;-82
2022/06/16 02:26:45;;;;;;;8.37;7.67;;;17.70;99.90;;;;;;6058031;23;20442;-82
2022/06/16 02:29:29;;;;;;;7.27;6.67;;;17.70;99.90;;;;;;6048259;23;20471;-82
2022/06/16 02:32:19;;;;;;;8.60;7.90;;;17.70;99.90;;;;;;6054883;23;20795;-82
2022/06/16 02:34:58;;;;;;;9.20;8.40;;;17.60;99.90;;;;;;6031282;23;20458;-82
2022/06/16 02:37:33;;;;;;;8.80;8.00;;;17.60;99.90;;;;;;6058243;23;20972;-82
2022/06/16 02:40:16;;;;;;;9.07;8.07;;;17.60;99.90;;;;;;6046966;23;20552;-82
2022/06/16 02:42:52;;;;;;;9.40;8.50;;;17.60;99.90;;;;;;6055516;23;20529;-83
2022/06/16 02:45:37;;;;;;;8.67;7.87;;;17.60;99.90;;;;;;6056492;23;20439;-82
2022/06/16 02:48:12;;;;;;;8.03;7.33;;;17.60;99.90;;;;;;6048788;23;20480;-82
2022/06/16 02:50:46;;;;;;;8.40;7.63;;;17.60;99.90;;;;;;6044547;23;21006;-82
2022/06/16 02:53:27;;;;;;;8.80;8.00;;;17.60;99.90;;;;;;6042679;23;20470;-82
2022/06/16 02:55:59;;;;;;;8.10;7.50;;;17.60;99.90;;;;;;6039132;23;20440;-82
2022/06/16 02:58:29;;;;;;;9.20;8.20;;;17.50;99.90;;;;;;6045869;23;20455;-82
2022/06/16 03:01:01;;;;;;;8.50;7.90;;;17.40;99.90;;;;;;6054068;23;20497;-82
2022/06/16 03:03:33;;;;;;;9.10;8.40;;;17.40;99.90;;;;;;6055036;23;20860;-82
2022/06/16 03:06:01;;;;;;;9.57;8.77;;;17.40;99.90;;;;;;6057859;23;20476;-82
2022/06/16 03:08:30;;;;;;;10.40;9.60;;;17.20;99.90;;;;;;6055315;23;20542;-82
2022/06/16 03:10:58;;;;;;;9.40;8.60;;;17.20;99.90;;;;;;6048476;23;20475;-83
2022/06/16 03:13:28;;;;;;;10.53;8.67;;;17.10;99.90;;;;;;6055725;23;20506;-84
2022/06/16 03:15:57;;;;;;;9.37;8.53;;;17.10;99.90;;;;;;6054260;23;20447;-83
2022/06/16 03:18:25;;;;;;;9.77;8.77;;;17.00;99.90;;;;;;6055867;23;20491;-84
2022/06/16 03:20:53;;;;;;;9.60;8.77;;;16.90;99.90;;;;;;6042359;23;20539;-83
2022/06/16 03:23:22;;;;;;;9.87;8.97;;;16.80;99.90;;;;;;6059616;23;20459;-82
2022/06/16 03:25:48;;;;;;;9.67;8.97;;;16.80;99.90;;;;;;6058703;23;21046;-84
2022/06/16 03:28:16;;;;;;;9.90;9.10;;;16.80;99.90;;;;;;6063227;23;20464;-84
2022/06/16 03:30:44;;;;;;;9.97;9.17;;;16.80;99.90;;;;;;6043724;23;20482;-84
2022/06/16 03:33:13;;;;;;;10.17;9.30;;;16.80;99.90;;;;;;6041377;23;20942;-84
2022/06/16 03:35:42;;;;;;;10.30;9.30;;;16.80;99.90;;;;;;6059508;23;20538;-84
2022/06/16 03:38:13;;;;;;;10.30;9.40;;;16.80;99.90;;;;;;6057768;23;20463;-84
2022/06/16 03:40:40;;;;;;;9.40;8.60;;;16.80;99.90;;;;;;6054622;23;20442;-84
2022/06/16 03:43:08;;;;;;;9.57;8.60;;;16.80;99.90;;;;;;6045315;23;20792;-84
2022/06/16 03:45:36;;;;;;;9.40;8.60;;;16.80;99.90;;;;;;6056616;23;20450;-84
2022/06/16 03:48:03;;;;;;;9.50;8.70;;;16.80;99.90;;;;;;6049588;23;20941;-84
2022/06/16 03:50:30;;;;;;;9.13;8.33;;;16.80;99.90;;;;;;6048559;23;20886;-84
2022/06/16 03:52:57;;;;;;;9.20;8.50;;;16.80;99.90;;;;;;6054856;23;20445;-84
2022/06/16 03:55:26;;;;;;;9.67;8.87;;;16.90;99.90;;;;;;6060151;23;20452;-84
2022/06/16 03:57:53;;;;;;;9.60;8.87;;;16.90;99.90;;;;;;6055843;23;20749;-84
2022/06/16 04:00:22;;;;;;;9.20;8.50;;;17.00;99.90;;;;;;6057314;23;20454;-84
2022/06/16 04:03:59;;;;;;;9.37;8.47;;;17.00;99.90;;;;;;6051027;23;20443;-82
2022/06/16 04:05:39;;;;;;;8.83;7.90;;;17.10;99.90;;;;;;6056072;23;20945;-83
2022/06/16 04:08:07;;;;;;;8.50;7.80;;;17.10;99.90;;;;;;6045014;23;20468;-83
2022/06/16 04:10:35;;;;;;;8.50;7.80;;;17.30;99.90;;;;;;6050342;23;22030;-82
2022/06/16 04:13:03;;;;;;;8.50;7.90;;;17.30;99.90;;;;;;6058211;23;20442;-82
2022/06/16 04:15:30;;;;;;;9.07;8.27;;;17.40;99.90;;;;;;6058332;23;20439;-83
2022/06/16 04:17:57;;;;;;;8.80;8.00;;;17.50;99.90;;;;;;6057927;23;20467;-83
2022/06/16 04:20:24;;;;;;;8.63;7.93;;;17.60;99.90;;;;;;6049952;23;20452;-82
2022/06/16 04:22:52;;;;;;;8.70;8.00;;;17.70;99.90;;;;;;6056995;23;20479;-84
2022/06/16 04:25:21;;;;;;;8.63;7.90;;;17.80;99.90;;;;;;6056482;23;20450;-84
2022/06/16 04:27:50;;;;;;;8.17;7.40;;;17.90;99.90;;;;;;6058634;23;20545;-85
2022/06/16 04:30:18;;;;;;;8.63;8.03;;;18.00;99.90;;;;;;6053471;23;20466;-84
2022/06/16 04:32:45;;;;;;;8.40;7.70;;;18.00;99.90;;;;;;6058255;23;20955;-84
2022/06/16 04:35:13;;;;;;;8.20;7.50;;;18.00;99.90;;;;;;6049973;23;20952;-84
2022/06/16 04:37:39;;;;;;;7.70;7.10;;;18.00;99.90;;;;;;6050724;23;21015;-82
2022/06/16 04:40:09;;;;;;;7.47;6.87;;;18.10;99.90;;;;;;6056772;23;20461;-82
2022/06/16 04:42:36;;;;;;;7.90;7.20;;;18.20;99.90;;;;;;6060714;23;20526;-82
2022/06/16 04:45:06;;;;;;;8.13;7.53;;;18.30;99.90;;;;;;6051414;23;20443;-83
2022/06/16 04:47:33;;;;;;;7.27;6.70;;;18.30;99.90;;;;;;6059356;23;20479;-83
2022/06/16 04:50:00;;;;;;;7.70;7.00;;;18.40;99.90;;;;;;6053288;23;20471;-83
2022/06/16 04:52:27;;;;;;;7.17;6.47;;;18.40;99.90;;;;;;6044151;23;20440;-85
2022/06/16 04:54:54;;;;;;;7.30;6.57;;;18.40;99.90;;;;;;6058060;23;20443;-83
2022/06/16 04:57:22;;;;;;;7.63;7.03;;;18.40;99.90;;;;;;6058206;23;20463;-84
2022/06/16 04:59:49;;;;;;;6.70;6.10;;;18.60;99.90;;;;;;6051840;23;20447;-83
2022/06/16 05:02:17;;;;;;;7.10;6.40;;;18.60;99.90;;;;;;6047405;23;20436;-85
2022/06/16 05:04:44;;;;;;;7.13;6.53;;;18.70;99.90;;;;;;6061648;23;20521;-84
2022/06/16 05:07:12;;;;;;;6.00;5.60;;;18.90;99.90;;;;;;6053478;23;21064;-82
2022/06/16 05:09:39;;;;;;;6.47;5.97;;;18.90;99.90;;;;;;6061433;23;20427;-82
2022/06/16 05:12:07;;;;;;;7.87;7.00;;;19.00;99.90;;;;;;6054256;23;21035;-82
2022/06/16 05:14:34;;;;;;;6.17;5.47;;;19.10;99.90;;;;;;6049201;23;20439;-82
2022/06/16 05:17:01;;;;;;;6.80;6.30;;;19.10;99.90;;;;;;6050282;23;20467;-82
2022/06/16 05:19:30;;;;;;;6.30;5.90;;;19.10;99.90;;;;;;6056170;23;20439;-82
2022/06/16 05:22:00;;;;;;;6.60;6.00;;;19.20;99.90;;;;;;6042890;23;20451;-82
2022/06/16 05:24:27;;;;;;;5.97;5.57;;;19.20;99.90;;;;;;6041358;23;20443;-81
2022/06/16 05:26:54;;;;;;;6.27;5.77;;;19.40;99.90;;;;;;6049461;23;20544;-81
2022/06/16 05:29:21;;;;;;;6.57;5.97;;;19.50;99.90;;;;;;6051948;23;20448;-81
2022/06/16 05:31:48;;;;;;;6.50;5.93;;;19.80;99.90;;;;;;6049366;23;20525;-81
2022/06/16 05:34:16;;;;;;;6.10;5.60;;;20.00;99.90;;;;;;6058651;23;20447;-81
2022/06/16 05:36:45;;;;;;;5.50;5.10;;;20.20;99.90;;;;;;6035737;23;20463;-80
2022/06/16 05:39:13;;;;;;;5.70;5.30;;;20.40;99.90;;;;;;6051975;23;20447;-81
2022/06/16 05:41:41;;;;;;;5.73;5.00;;;20.70;99.90;;;;;;6058106;23;20443;-83
2022/06/16 05:44:08;;;;;;;5.40;4.93;;;20.90;99.90;;;;;;6061822;23;20523;-81
2022/06/16 05:46:36;;;;;;;4.90;4.50;;;21.10;99.90;;;;;;6064960;23;20474;-81
2022/06/16 05:49:03;;;;;;;5.33;4.47;;;21.30;99.90;;;;;;6063704;23;20436;-82
2022/06/16 05:51:31;;;;;;;5.90;5.10;;;21.50;99.90;;;;;;6068040;23;20502;-82
2022/06/16 05:53:59;;;;;;;5.67;5.20;;;21.80;99.90;;;;;;6066871;23;20433;-82
2022/06/16 05:56:26;;;;;;;6.03;5.53;;;21.90;99.90;;;;;;6059864;23;20436;-83
2022/06/16 05:58:53;;;;;;;5.97;5.50;;;21.80;99.90;;;;;;6061842;23;20431;-83
2022/06/16 06:01:20;;;;;;;7.03;6.53;;;21.70;99.90;;;;;;6060263;23;20458;-83
2022/06/16 06:03:48;;;;;;;5.83;5.33;;;21.60;99.90;;;;;;6061510;23;20446;-84
2022/06/16 06:06:15;;;;;;;5.57;5.07;;;21.50;99.90;;;;;;6064431;23;21165;-83
2022/06/16 06:17:09;;;;;;;5.27;4.53;;;21.80;99.90;;;;;;6061529;23;20459;-83
2022/06/16 06:19:36;;;;;;;4.90;4.47;;;21.90;99.90;;;;;;6061879;23;20446;-83
2022/06/16 06:22:06;;;;;;;4.40;4.10;;;21.90;99.90;;;;;;6053178;23;20960;-83
2022/06/16 06:24:36;;;;;;;7.30;4.37;;;21.80;99.90;;;;;;6036363;23;20436;-84
2022/06/16 06:27:11;;;;;;;5.00;4.60;;;21.60;99.90;;;;;;6044869;23;20877;-84
2022/06/16 06:29:38;;;;;;;5.37;4.90;;;21.50;99.90;;;;;;6045615;23;20439;-84
2022/06/16 06:32:07;;;;;;;5.27;4.77;;;21.30;99.90;;;;;;6061599;23;20456;-84
2022/06/16 06:34:34;;;;;;;5.63;5.13;;;21.30;99.90;;;;;;6062334;23;20443;-84
2022/06/16 06:37:01;;;;;;;5.93;5.53;;;21.40;99.90;;;;;;6065416;23;20459;-84
2022/06/16 06:39:28;;;;;;;4.73;4.30;;;21.50;99.90;;;;;;6057494;23;20468;-83
2022/06/16 06:41:55;;;;;;;5.00;4.70;;;21.80;99.90;;;;;;6058219;23;20896;-84
2022/06/16 06:44:24;;;;;;;4.87;4.37;;;22.20;99.90;;;;;;6049392;23;20446;-84
2022/06/16 06:46:51;;;;;;;5.27;4.77;;;22.70;99.90;;;;;;6043874;23;20463;-85
2022/06/16 06:49:18;;;;;;;6.70;4.90;;;23.00;99.90;;;;;;6051029;23;20442;-85
2022/06/16 06:51:45;;;;;;;5.80;5.20;;;23.10;99.90;;;;;;6064924;23;20470;-85
2022/06/16 06:54:12;;;;;;;5.47;5.07;;;23.20;99.90;;;;;;6066511;23;20838;-84
2022/06/16 06:56:39;;;;;;;5.27;4.87;;;23.20;99.90;;;;;;6057182;23;20489;-85
2022/06/16 06:59:08;;;;;;;5.03;4.43;;;23.20;99.90;;;;;;6067651;23;20443;-85
2022/06/16 07:01:36;;;;;;;5.30;4.90;;;23.30;99.90;;;;;;6064724;23;20475;-84
2022/06/16 07:04:03;;;;;;;5.20;4.80;;;23.30;99.80;;;;;;6060716;23;20924;-85
2022/06/16 07:06:31;;;;;;;5.53;5.03;;;23.40;99.80;;;;;;6063849;23;20941;-84
2022/06/16 07:08:58;;;;;;;5.20;4.80;;;23.30;99.60;;;;;;6066555;23;20429;-84
2022/06/16 07:11:25;;;;;;;5.87;5.37;;;23.40;99.90;;;;;;6041800;23;20471;-85
2022/06/16 07:13:52;;;;;;;5.83;4.90;;;23.50;99.90;;;;;;6053629;23;20490;-84
2022/06/16 07:16:20;;;;;;;5.50;5.10;;;23.60;99.80;;;;;;6041262;23;20455;-85
2022/06/16 07:18:49;;;;;;;5.80;5.30;;;23.60;99.90;;;;;;6054436;23;20460;-81
2022/06/16 07:21:16;;;;;;;5.70;5.30;;;23.60;99.60;;;;;;6036294;23;20590;-84
2022/06/16 07:23:44;;;;;;;5.20;4.80;;;23.70;99.70;;;;;;6055959;23;20468;-84
2022/06/16 07:26:12;;;;;;;6.27;5.67;;;23.80;99.40;;;;;;6063181;23;20481;-80
2022/06/16 07:28:39;;;;;;;5.93;5.00;;;24.00;99.60;;;;;;6053540;23;20886;-79
2022/06/16 07:31:06;;;;;;;5.43;5.03;;;24.10;99.00;;;;;;6062921;23;20472;-79
2022/06/16 07:33:33;;;;;;;5.83;5.33;;;24.40;98.90;;;;;;6060638;23;20494;-80
2022/06/16 07:36:01;;;;;;;5.30;4.90;;;24.60;98.50;;;;;;6066537;23;20450;-79
2022/06/16 07:38:29;;;;;;;6.27;5.67;;;24.90;97.40;;;;;;6063866;23;20483;-80
2022/06/16 07:41:31;;;;;;;5.43;4.60;;;25.20;97.00;;;;;;6066602;23;20497;-80
2022/06/16 07:43:43;;;;;;;4.47;4.17;;;25.30;96.40;;;;;;6070564;23;20517;-80
2022/06/16 07:46:11;;;;;;;10.53;4.77;;;25.70;95.90;;;;;;6066515;23;20450;-80
2022/06/16 07:48:38;;;;;;;5.73;5.23;;;26.00;94.90;;;;;;6059668;23;20545;-79
2022/06/16 07:51:06;;;;;;;4.70;4.37;;;26.20;94.90;;;;;;6057250;23;20463;-87
2022/06/16 07:53:33;;;;;;;5.27;4.70;;;26.40;94.60;;;;;;6064646;23;20440;-79
2022/06/16 07:56:01;;;;;;;4.40;4.10;;;26.60;94.30;;;;;;6063644;23;20478;-77
2022/06/16 07:58:31;;;;;;;5.07;4.60;;;27.00;93.80;;;;;;6062368;23;20521;-80
2022/06/16 08:00:58;;;;;;;5.20;4.80;;;27.30;93.40;;;;;;6069599;23;20446;-80
2022/06/16 08:03:28;;;;;;;6.63;4.87;;;27.40;92.70;;;;;;6066956;23;20930;-79
2022/06/16 08:05:56;;;;;;;4.77;4.47;;;27.70;92.60;;;;;;6066124;23;20518;-80
2022/06/16 08:08:26;;;;;;;5.10;4.20;;;27.70;92.10;;;;;;6060581;23;20861;-79
2022/06/16 08:10:54;;;;;;;5.23;4.83;;;27.70;91.80;;;;;;6057022;23;20465;-79
2022/06/16 08:13:22;;;;;;;5.00;4.20;;;27.60;90.50;;;;;;6059453;23;20828;-79
2022/06/16 08:15:50;;;;;;;4.93;4.53;;;27.70;90.80;;;;;;6056695;23;20432;-79
2022/06/16 08:18:20;;;;;;;6.60;4.63;;;27.90;90.70;;;;;;6061340;23;20430;-79
2022/06/16 08:20:48;;;;;;;4.80;4.40;;;27.90;90.80;;;;;;6066784;23;20431;-79
2022/06/16 08:23:15;;;;;;;4.30;4.00;;;27.70;90.50;;;;;;6064060;23;20430;-79
2022/06/16 08:25:46;;;;;;;4.77;4.27;;;27.60;91.00;;;;;;6058236;23;20901;-79
2022/06/16 08:28:15;;;;;;;5.47;5.07;;;27.20;91.10;;;;;;6053575;23;20443;-78
2022/06/16 08:30:44;;;;;;;5.00;4.60;;;26.70;91.40;;;;;;6057317;23;20438;-78
2022/06/16 08:33:13;;;;;;;5.20;4.70;;;26.30;91.40;;;;;;6056581;23;20808;-78
2022/06/16 08:35:41;;;;;;;5.00;4.60;;;25.70;91.80;;;;;;6054802;23;20513;-78
2022/06/16 08:38:09;;;;;;;5.20;4.73;;;25.50;92.20;;;;;;6063281;23;20942;-78
2022/06/16 08:40:42;;;;;;;5.20;4.80;;;25.80;92.00;;;;;;6067226;23;20524;-78
2022/06/16 08:43:23;;;;;;;5.20;4.80;;;26.50;92.10;;;;;;6063829;23;20431;-78
2022/06/16 08:45:54;;;;;;;5.33;4.83;;;26.90;91.70;;;;;;6060415;23;20435;-78
2022/06/16 08:48:29;;;;;;;5.07;4.70;;;27.20;90.90;;;;;;6066763;23;20499;-79
2022/06/16 08:51:01;;;;;;;5.07;4.67;;;27.80;90.10;;;;;;6055858;23;20498;-78
2022/06/16 08:53:56;;;;;;;4.90;4.47;;;28.50;88.40;;;;;;6064596;23;20488;-79
2022/06/16 08:56:34;;;;;;;5.27;4.77;;;29.40;85.10;;;;;;6059951;23;21057;-83
2022/06/16 08:59:10;;;;;;;4.80;4.37;;;29.90;83.80;;;;;;6058303;23;20962;-83
2022/06/16 09:01:44;;;;;;;7.90;5.23;;;30.80;81.90;;;;;;6053573;23;22253;-80
2022/06/16 09:04:14;;;;;;;5.10;4.70;;;31.60;79.70;;;;;;6058823;23;20440;-78
2022/06/16 09:06:53;;;;;;;5.13;4.73;;;32.20;75.60;;;;;;6070303;23;20550;-78
2022/06/16 09:12:39;;;;;;;5.37;4.97;;;33.00;72.30;;;;;;6064951;23;20476;-78
2022/06/16 09:15:17;;;;;;;5.70;5.20;;;33.30;70.30;;;;;;6057514;23;20949;-78
2022/06/16 09:18:00;;;;;;;5.97;5.30;;;33.40;69.80;;;;;;6061475;23;20459;-79
2022/06/16 09:20:35;;;;;;;4.80;4.50;;;33.70;69.00;;;;;;6057342;23;20520;-78
2022/06/16 09:23:22;;;;;;;5.10;4.60;;;33.90;67.70;;;;;;6068053;23;20518;-79
2022/06/16 09:26:02;;;;;;;4.60;4.27;;;34.20;67.00;;;;;;6054923;23;20461;-78
2022/06/16 09:28:35;;;;;;;5.07;4.73;;;34.50;64.80;;;;;;6052663;23;20840;-79
2022/06/16 09:31:09;;;;;;;5.43;4.80;;;34.70;64.60;;;;;;6057116;23;20948;-79
2022/06/16 09:33:44;;;;;;;4.53;4.23;;;34.70;63.70;;;;;;6055941;23;20509;-79
2022/06/16 09:36:17;;;;;;;5.43;4.93;;;34.70;62.70;;;;;;6056453;23;20509;-80
2022/06/16 09:38:52;;;;;;;5.07;4.67;;;34.80;61.20;;;;;;6055415;23;20447;-79
2022/06/16 09:44:14;;;;;;;5.30;4.90;;;34.70;60.90;;;;;;6069663;23;20458;-77
2022/06/16 09:46:50;;;;;;;6.37;4.97;;;35.00;60.90;;;;;;6067820;23;20471;-77
2022/06/16 09:49:24;;;;;;;5.10;4.70;;;34.80;60.00;;;;;;6073330;23;20526;-76
2022/06/16 09:51:56;;;;;;;4.47;4.17;;;34.80;60.60;;;;;;6074352;23;20552;-77
2022/06/16 09:54:32;;;;;;;5.47;5.07;;;34.80;60.00;;;;;;6055248;23;20443;-77
2022/06/16 09:57:03;;;;;;;5.07;4.67;;;34.40;60.00;;;;;;6068062;23;20819;-77
2022/06/16 09:59:35;;;;;;;7.43;4.80;;;34.30;60.70;;;;;;6066412;23;20461;-78
2022/06/16 10:02:06;;;;;;;4.70;4.30;;;34.20;60.80;;;;;;6068672;23;20449;-78
2022/06/16 10:04:34;;;;;;;4.90;4.60;;;34.40;61.00;;;;;;6072777;23;20922;-84
2022/06/16 10:07:14;;;;;;;4.77;4.33;;;34.40;59.90;;;;;;6069887;23;20473;-77
2022/06/16 10:09:47;;;;;;;5.13;4.63;;;34.40;60.30;;;;;;6055490;23;20447;-80
2022/06/16 14:08:29;;;;;;;4.00;2.90;;;44.80;30.10;;;;;;6121062;23;20589;-78
2022/06/16 14:11:17;;;;;;;3.10;2.90;;;43.80;31.70;;;;;;6069766;23;20434;-77
2022/06/16 14:13:47;;;;;;;2.60;2.37;;;43.40;31.00;;;;;;6073994;23;20514;-77
2022/06/16 14:16:22;;;;;;;2.97;2.67;;;42.90;30.80;;;;;;6071182;23;20545;-77
2022/06/16 14:19:09;;;;;;;3.07;2.80;;;43.60;32.10;;;;;;6075145;23;21021;-77
2022/06/16 14:21:39;;;;;;;2.93;2.63;;;44.30;31.00;;;;;;6073962;23;20433;-77
2022/06/16 14:24:12;;;;;;;4.50;2.90;;;45.50;31.20;;;;;;6075237;23;20430;-79
2022/06/16 14:26:43;;;;;;;2.60;2.40;;;46.30;30.90;;;;;;6068535;23;20462;-78
2022/06/16 14:29:14;;;;;;;4.43;2.77;;;46.80;30.50;;;;;;6073599;23;20492;-77
2022/06/16 14:31:46;;;;;;;4.23;2.97;;;46.70;30.10;;;;;;6082579;23;20446;-77
2022/06/16 14:34:20;;;;;;;3.70;2.80;;;46.10;30.20;;;;;;6073623;23;20435;-78
2022/06/16 14:36:56;;;;;;;2.70;2.50;;;46.60;30.10;;;;;;6064547;23;20949;-77
2022/06/16 14:39:29;;;;;;;2.70;2.50;;;46.50;29.80;;;;;;6077166;23;20434;-76
2022/06/16 14:42:00;;;;;;;2.40;2.20;;;45.90;29.40;;;;;;6075716;23;20508;-76
2022/06/16 14:44:32;;;;;;;3.43;3.07;;;45.20;29.70;;;;;;6075693;23;20459;-77
2022/06/16 14:47:10;;;;;;;3.73;3.23;;;45.00;29.90;;;;;;6071526;23;20479;-77
2022/06/16 14:49:42;;;;;;;3.40;3.00;;;44.60;30.40;;;;;;6075846;23;20434;-76
2022/06/16 14:52:11;;;;;;;2.87;2.53;;;44.00;30.60;;;;;;6076729;23;20434;-77
2022/06/16 14:54:46;;;;;;;3.13;2.80;;;44.60;30.50;;;;;;6058676;23;20468;-77
2022/06/16 14:57:20;;;;;;;2.80;2.60;;;44.70;31.40;;;;;;6063853;23;20473;-77
2022/06/16 14:59:52;;;;;;;3.77;2.50;;;44.60;30.40;;;;;;6066670;23;20430;-77
2022/06/16 15:02:24;;;;;;;2.80;2.60;;;44.80;31.20;;;;;;6069116;23;20523;-77
2022/06/16 15:04:55;;;;;;;3.10;2.90;;;44.80;30.20;;;;;;6070558;23;20535;-77
2022/06/16 15:07:23;;;;;;;3.13;2.83;;;44.30;30.30;;;;;;6077219;23;20557;-77
2022/06/16 15:09:52;;;;;;;4.90;2.70;;;44.00;30.60;;;;;;6072885;23;21020;-79
2022/06/16 15:12:20;;;;;;;3.33;3.03;;;44.40;30.50;;;;;;6076371;23;20430;-76
2022/06/16 15:14:48;;;;;;;2.90;2.60;;;44.00;30.90;;;;;;6069109;23;20508;-76
2022/06/16 15:20:07;;;;;;;3.00;2.80;;;44.20;30.50;;;;;;6066667;23;20468;-76
2022/06/16 15:22:42;;;;;;;4.00;2.80;;;44.00;30.50;;;;;;6065780;23;20437;-76
2022/06/16 15:25:15;;;;;;;4.00;2.90;;;44.00;30.50;;;;;;6072612;23;20477;-76
2022/06/16 15:27:46;;;;;;;3.00;2.60;;;43.60;30.80;;;;;;6060646;23;20454;-76
2022/06/16 15:30:25;;;;;;;3.33;2.80;;;44.30;30.90;;;;;;6066388;23;20447;-77
2022/06/16 15:36:08;;;;;;;2.90;2.70;;;43.80;30.50;;;;;;6070102;23;20985;-76
2022/06/16 15:38:35;;;;;;;3.10;2.80;;;42.80;30.90;;;;;;6068958;23;20447;-77
2022/06/16 15:41:04;;;;;;;3.80;3.10;;;42.90;31.50;;;;;;6069374;23;20449;-77
2022/06/16 15:43:36;;;;;;;3.00;2.80;;;41.60;31.70;;;;;;6073131;23;20439;-77
2022/06/16 15:46:09;;;;;;;3.50;3.20;;;40.60;32.10;;;;;;6073801;23;20590;-77
2022/06/16 15:48:39;;;;;;;3.77;2.83;;;39.80;33.10;;;;;;6063651;23;20462;-78
2022/06/16 15:51:10;;;;;;;2.80;2.60;;;38.70;33.20;;;;;;6058680;23;20439;-77
2022/06/16 15:53:40;;;;;;;3.17;2.80;;;37.60;34.70;;;;;;6064146;23;20467;-77
2022/06/16 15:56:12;;;;;;;3.80;3.00;;;36.50;35.00;;;;;;6060572;23;20446;-82
2022/06/16 15:58:39;;;;;;;5.23;2.80;;;35.30;36.00;;;;;;6065016;23;20851;-77
2022/06/16 16:01:09;;;;;;;3.30;3.07;;;34.30;37.10;;;;;;6068412;23;20446;-77
2022/06/16 16:03:38;;;;;;;2.83;2.63;;;33.50;37.50;;;;;;6068433;23;20483;-79
2022/06/16 16:06:08;;;;;;;4.53;2.73;;;32.80;38.20;;;;;;6070450;23;20478;-78
2022/06/16 16:08:35;;;;;;;4.27;3.10;;;32.20;39.10;;;;;;6056607;23;20468;-78
2022/06/16 16:11:21;;;;;;;3.20;2.90;;;31.60;40.10;;;;;;6064356;23;20446;-78
2022/06/16 16:13:58;;;;;;;3.30;3.00;;;31.10;41.20;;;;;;6056565;23;20434;-78
2022/06/16 16:16:25;;;;;;;3.90;2.97;;;30.70;41.10;;;;;;6071116;23;20552;-78
2022/06/16 16:19:11;;;;;;;2.80;2.60;;;30.40;41.30;;;;;;6061636;23;20447;-78
2022/06/16 16:21:42;;;;;;;2.90;2.70;;;30.10;41.10;;;;;;6063327;23;20498;-78
2022/06/16 16:24:11;;;;;;;3.33;2.70;;;29.80;41.50;;;;;;6058144;23;20582;-77
2022/06/16 16:26:39;;;;;;;3.13;2.93;;;29.70;42.50;;;;;;6069796;23;20443;-77
2022/06/16 16:29:09;;;;;;;2.97;2.70;;;29.60;41.30;;;;;;6066656;23;20478;-78
2022/06/16 16:31:42;;;;;;;3.60;2.60;;;29.50;42.00;;;;;;6053958;23;20439;-77
2022/06/16 16:34:11;;;;;;;3.03;2.80;;;29.40;43.00;;;;;;6053877;23;20517;-79
2022/06/16 16:36:55;;;;;;;2.90;2.70;;;29.40;42.30;;;;;;6058058;23;20454;-78
2022/06/16 16:39:25;;;;;;;2.53;2.33;;;29.30;41.40;;;;;;6062527;23;20451;-78
2022/06/16 16:45:13;;;;;;;3.13;2.77;;;29.10;42.10;;;;;;6041442;23;20551;-78
2022/06/16 16:48:05;;;;;;;2.67;2.47;;;29.00;41.90;;;;;;6044208;23;20480;-78
2022/06/16 16:50:35;;;;;;;3.07;2.40;;;28.90;41.40;;;;;;6056771;23;20431;-78
2022/06/16 16:53:16;;;;;;;2.87;2.67;;;28.80;41.70;;;;;;6058937;23;20447;-78
2022/06/16 16:55:45;;;;;;;3.47;2.50;;;28.80;41.70;;;;;;6058326;23;20439;-78
2022/06/16 16:58:14;;;;;;;2.87;2.63;;;28.70;42.60;;;;;;6052108;23;20462;-77
2022/06/16 17:00:42;;;;;;;4.00;2.80;;;28.70;42.10;;;;;;6054697;23;20435;-78
2022/06/16 17:03:11;;;;;;;2.60;2.40;;;28.70;42.40;;;;;;6060587;23;21545;-78
2022/06/16 17:05:38;;;;;;;3.73;2.27;;;28.60;41.70;;;;;;6061247;23;20444;-78
2022/06/16 17:08:06;;;;;;;3.33;2.57;;;28.50;41.50;;;;;;6047135;23;20535;-78
2022/06/16 17:10:33;;;;;;;3.37;2.20;;;28.40;41.40;;;;;;6052131;23;20521;-77
2022/06/16 17:13:02;;;;;;;2.47;2.27;;;28.30;41.60;;;;;;6039384;23;20450;-77
2022/06/16 17:15:31;;;;;;;2.50;2.30;;;28.20;41.60;;;;;;6060467;23;20473;-78
2022/06/16 17:18:00;;;;;;;2.83;2.57;;;28.10;42.40;;;;;;6060681;23;20553;-77
2022/06/16 17:20:28;;;;;;;2.60;2.40;;;28.00;41.40;;;;;;6059359;23;20440;-78
2022/06/16 17:22:56;;;;;;;2.23;2.13;;;28.00;41.80;;;;;;6049198;23;20466;-78
2022/06/16 17:25:25;;;;;;;2.17;2.00;;;27.90;41.90;;;;;;6047844;23;20463;-78
2022/06/16 17:27:53;;;;;;;3.17;2.20;;;27.90;41.90;;;;;;6055992;23;20482;-78
2022/06/16 17:30:23;;;;;;;2.80;2.60;;;27.80;42.20;;;;;;6061084;23;20435;-78